Time;durP1;ratioP1;P1;durP2;ratioP2;P2;SDS_P1;SDS_P2;PMS_P1;PMS_P2;Temp;Humidity;BMP_temperature;BMP_pressure;BME280_temperature;BME280_humidity;BME280_pressure;Samples;Min_cycle;Max_cycle;Signal;HPM_P1;HPM_P2
2022/07/06 00:01:50;;;;;;;;;3.00;2.00;;;;;22.55;43.56;99564.56;5101716;27;48491;-75
2022/07/06 00:04:17;;;;;;;;;2.00;2.00;;;;;22.50;42.54;99565.91;5074259;28;45383;-76
2022/07/06 00:06:43;;;;;;;;;2.00;2.00;;;;;22.42;43.15;99571.91;5078424;27;45364;-75
2022/07/06 00:09:08;;;;;;;;;2.00;2.00;;;;;22.36;43.27;99567.03;5078167;27;45522;-75
2022/07/06 00:11:34;;;;;;;;;2.00;2.00;;;;;22.28;43.67;99578.41;5077735;27;45448;-75
2022/07/06 00:13:59;;;;;;;;;2.00;2.00;;;;;22.20;43.42;99574.63;5077762;27;45408;-75
2022/07/06 00:16:25;;;;;;;;;3.00;2.25;;;;;22.14;43.98;99572.44;5078333;28;45285;-75
2022/07/06 00:18:51;;;;;;;;;3.00;1.00;;;;;22.10;44.43;99584.41;5084102;27;45518;-76
2022/07/06 00:21:17;;;;;;;;;3.00;3.00;;;;;22.06;44.40;99569.53;5078180;28;45673;-75
2022/07/06 00:23:43;;;;;;;;;6.00;2.00;;;;;22.00;44.16;99572.69;5077690;27;45428;-75
2022/07/06 00:26:08;;;;;;;;;3.75;2.75;;;;;21.96;45.00;99574.72;5077830;27;45408;-75
2022/07/06 00:28:34;;;;;;;;;1.00;0.75;;;;;21.91;44.65;99566.19;5077817;27;45366;-75
2022/07/06 00:30:59;;;;;;;;;2.00;2.00;;;;;21.87;44.62;99559.34;5078034;28;46133;-76
2022/07/06 00:33:25;;;;;;;;;1.50;0.00;;;;;21.87;44.82;99567.41;5076041;28;45350;-75
2022/07/06 00:35:51;;;;;;;;;2.00;2.00;;;;;21.85;44.74;99562.16;5077812;27;45521;-75
2022/07/06 00:38:16;;;;;;;;;2.75;2.75;;;;;21.84;45.46;99568.50;5077681;27;45451;-75
2022/07/06 00:40:42;;;;;;;;;3.25;3.00;;;;;21.83;45.15;99560.56;5077319;27;45448;-76
2022/07/06 00:43:07;;;;;;;;;2.00;2.00;;;;;21.79;44.86;99559.94;5077337;28;45372;-75
2022/07/06 00:45:33;;;;;;;;;1.75;1.75;;;;;21.78;45.55;99568.16;5077757;27;45379;-75
2022/07/06 00:47:58;;;;;;;;;2.00;2.00;;;;;21.75;45.64;99576.44;5077516;28;45392;-75
2022/07/06 00:50:25;;;;;;;;;2.00;2.00;;;;;21.71;45.35;99569.59;5077403;27;46263;-75
2022/07/06 00:52:55;;;;;;;;;2.60;2.00;;;;;21.66;45.61;99571.78;5077264;27;45312;-75
2022/07/06 00:55:23;;;;;;;;;2.00;2.00;;;;;21.61;45.87;99571.31;5077684;27;45449;-75
2022/07/06 00:57:49;;;;;;;;;1.00;1.00;;;;;21.56;45.55;99577.03;5077334;27;45360;-75
2022/07/06 01:00:17;;;;;;;;;3.00;2.50;;;;;21.55;46.31;99578.00;5076060;28;47210;-75
2022/07/06 01:02:43;;;;;;;;;2.00;2.00;;;;;21.51;46.32;99573.84;5077299;27;45427;-75
2022/07/06 01:05:11;;;;;;;;;2.50;2.50;;;;;21.48;45.95;99577.63;5077480;27;45419;-76
2022/07/06 01:07:38;;;;;;;;;3.00;2.00;;;;;21.45;46.14;99572.47;5091903;27;45959;-75
2022/07/06 01:10:05;;;;;;;;;1.20;1.20;;;;;21.44;46.32;99572.63;5067536;28;46204;-75
2022/07/06 01:12:32;;;;;;;;;3.20;3.20;;;;;21.42;46.27;99580.78;5076663;27;45451;-75
2022/07/06 01:14:57;;;;;;;;;2.00;2.00;;;;;21.41;46.32;99586.28;5077319;27;45376;-75
2022/07/06 01:17:24;;;;;;;;;2.00;2.00;;;;;21.36;46.85;99583.94;5076012;27;45413;-75
2022/07/06 01:19:49;;;;;;;;;3.40;2.00;;;;;21.36;46.36;99586.63;5075480;28;48428;-75
2022/07/06 01:22:15;;;;;;;;;3.00;3.00;;;;;21.37;46.63;99584.78;5076795;27;45443;-75
2022/07/06 01:24:40;;;;;;;;;3.00;2.00;;;;;21.36;46.30;99583.06;5077093;28;45424;-75
2022/07/06 01:27:07;;;;;;;;;5.00;3.00;;;;;21.37;46.87;99588.31;5076743;27;45312;-76
2022/07/06 01:29:33;;;;;;;;;2.00;2.00;;;;;21.35;46.81;99584.06;5075924;28;47078;-75
2022/07/06 01:31:59;;;;;;;;;4.00;3.00;;;;;21.31;47.28;99583.41;5076764;28;45376;-75
2022/07/06 01:34:24;;;;;;;;;3.00;3.00;;;;;21.26;47.04;99590.13;5076945;27;45564;-75
2022/07/06 01:36:50;;;;;;;;;2.75;2.75;;;;;21.18;47.29;99586.16;5076863;27;45558;-75
2022/07/06 01:39:15;;;;;;;;;3.50;2.50;;;;;21.11;47.29;99579.59;5076741;27;46186;-75
2022/07/06 01:41:41;;;;;;;;;2.25;2.00;;;;;21.04;47.79;99581.00;5076436;28;45351;-76
2022/07/06 01:44:06;;;;;;;;;2.00;2.00;;;;;20.98;47.35;99578.78;5077087;27;45381;-74
2022/07/06 01:46:32;;;;;;;;;2.75;2.75;;;;;20.95;47.76;99576.31;5076451;27;45329;-75
2022/07/06 01:48:57;;;;;;;;;2.00;2.00;;;;;20.90;47.93;99576.69;5076194;27;45630;-75
2022/07/06 01:51:24;;;;;;;;;2.00;2.00;;;;;20.87;48.18;99578.75;5076655;27;45511;-75
2022/07/06 01:53:50;;;;;;;;;2.00;2.00;;;;;20.80;48.57;99581.00;5076554;27;45456;-75
2022/07/06 01:56:17;;;;;;;;;3.00;3.00;;;;;20.75;48.83;99585.03;5076159;27;45470;-75
2022/07/06 01:58:42;;;;;;;;;2.00;2.00;;;;;20.70;48.53;99571.97;5076276;27;46342;-76
2022/07/06 02:01:09;;;;;;;;;2.75;2.75;;;;;20.66;49.33;99580.34;5076332;27;45398;-75
2022/07/06 02:03:35;;;;;;;;;2.00;2.00;;;;;20.58;49.64;99586.28;5076353;27;45354;-75
2022/07/06 02:06:01;;;;;;;;;2.00;2.00;;;;;20.54;49.44;99582.09;5076018;28;45423;-75
2022/07/06 02:08:26;;;;;;;;;5.50;3.00;;;;;20.49;49.00;99581.56;5075356;27;45484;-74
2022/07/06 02:10:52;;;;;;;;;2.00;2.00;;;;;20.45;49.75;99590.78;5084014;27;45450;-75
2022/07/06 02:13:17;;;;;;;;;3.25;3.25;;;;;20.41;49.50;99582.16;5076054;27;45448;-75
2022/07/06 02:15:42;;;;;;;;;3.25;3.00;;;;;20.39;50.02;99586.75;5075803;27;45480;-75
2022/07/06 02:18:08;;;;;;;;;1.25;1.25;;;;;20.36;49.77;99581.63;5076079;27;46122;-75
2022/07/06 02:20:33;;;;;;;;;3.75;3.25;;;;;20.34;49.94;99588.03;5075152;27;45422;-75
2022/07/06 02:22:59;;;;;;;;;3.00;2.50;;;;;20.32;49.75;99587.28;5076373;27;45933;-75
2022/07/06 02:25:24;;;;;;;;;2.25;1.75;;;;;20.31;49.96;99586.41;5075942;27;45376;-76
2022/07/06 02:27:49;;;;;;;;;3.00;2.50;;;;;20.29;50.05;99590.16;5074512;28;47048;-75
2022/07/06 02:30:15;;;;;;;;;3.75;3.75;;;;;20.27;49.96;99592.13;5075840;28;45364;-75
2022/07/06 02:32:40;;;;;;;;;3.00;3.00;;;;;20.23;50.17;99590.63;5076189;27;45755;-76
2022/07/06 02:35:06;;;;;;;;;3.00;3.00;;;;;20.20;50.09;99597.06;5075792;27;45402;-75
2022/07/06 02:37:31;;;;;;;;;4.50;2.25;;;;;20.16;50.46;99599.09;5075524;27;45470;-75
2022/07/06 02:39:57;;;;;;;;;3.25;2.50;;;;;20.13;50.55;99603.81;5075790;27;45412;-76
2022/07/06 02:42:22;;;;;;;;;2.00;1.50;;;;;20.10;50.43;99596.88;5075715;27;45443;-75
2022/07/06 02:44:47;;;;;;;;;2.50;2.50;;;;;20.09;51.01;99599.66;5075748;27;45615;-75
2022/07/06 02:47:13;;;;;;;;;4.00;2.25;;;;;20.04;50.52;99597.31;5073988;28;47124;-75
2022/07/06 02:49:38;;;;;;;;;4.00;4.00;;;;;20.03;50.35;99597.41;5075541;27;45257;-76
2022/07/06 02:52:03;;;;;;;;;4.00;4.00;;;;;20.00;50.96;99597.63;5075848;27;45348;-75
2022/07/06 02:54:29;;;;;;;;;4.25;3.50;;;;;19.96;50.84;99613.03;5075723;28;45629;-75
2022/07/06 02:56:54;;;;;;;;;1.50;1.50;;;;;19.95;50.93;99611.31;5075402;27;45411;-75
2022/07/06 02:59:20;;;;;;;;;1.75;1.75;;;;;19.92;50.80;99616.06;5075531;27;45344;-75
2022/07/06 03:01:46;;;;;;;;;3.75;3.75;;;;;19.91;51.24;99623.25;5075923;27;45155;-75
2022/07/06 03:04:11;;;;;;;;;3.50;2.50;;;;;19.90;51.05;99609.97;5075412;27;45542;-75
2022/07/06 03:06:36;;;;;;;;;3.00;3.00;;;;;19.89;51.18;99618.94;5075261;27;45392;-75
2022/07/06 03:09:02;;;;;;;;;2.00;2.00;;;;;19.86;51.73;99620.88;5074927;27;45344;-75
2022/07/06 03:11:28;;;;;;;;;5.00;3.00;;;;;19.82;51.71;99618.50;5075104;27;45495;-75
2022/07/06 03:13:53;;;;;;;;;3.00;3.00;;;;;19.78;51.62;99617.88;5075239;28;45238;-75
2022/07/06 03:16:19;;;;;;;;;3.00;2.50;;;;;19.76;51.86;99619.81;5075382;28;46580;-75
2022/07/06 03:18:44;;;;;;;;;3.00;3.00;;;;;19.74;51.55;99620.88;5075091;27;45413;-75
2022/07/06 03:21:09;;;;;;;;;2.00;2.00;;;;;19.72;51.56;99623.66;5075622;27;45402;-75
2022/07/06 03:23:35;;;;;;;;;3.00;3.00;;;;;19.71;51.56;99627.31;5075120;27;45576;-75
2022/07/06 03:26:00;;;;;;;;;2.50;2.50;;;;;19.70;51.99;99633.63;5074493;28;45472;-75
2022/07/06 03:28:25;;;;;;;;;2.50;2.50;;;;;19.67;52.06;99624.94;5073700;28;45700;-76
2022/07/06 03:30:51;;;;;;;;;2.00;2.00;;;;;19.64;51.85;99628.69;5075544;27;45511;-75
2022/07/06 03:33:16;;;;;;;;;4.00;4.00;;;;;19.62;51.24;99627.91;5080265;27;45604;-75
2022/07/06 03:35:42;;;;;;;;;4.75;3.75;;;;;19.62;52.01;99633.28;5081688;27;45499;-76
2022/07/06 03:38:07;;;;;;;;;3.00;3.00;;;;;19.59;51.98;99628.16;5079476;28;45407;-75
2022/07/06 03:40:33;;;;;;;;;3.75;2.50;;;;;19.58;51.97;99634.47;5081747;27;45406;-75
2022/07/06 03:42:59;;;;;;;;;2.75;2.00;;;;;19.59;52.00;99638.84;5081529;27;45542;-75
2022/07/06 03:45:27;;;;;;;;;2.75;2.75;;;;;19.58;52.43;99639.81;5081782;27;45390;-75
2022/07/06 03:47:52;;;;;;;;;2.40;2.00;;;;;19.55;51.99;99637.34;5081533;27;45349;-75
2022/07/06 03:50:18;;;;;;;;;3.75;3.00;;;;;19.56;52.47;99638.22;5081980;27;45787;-75
2022/07/06 03:52:43;;;;;;;;;4.75;3.00;;;;;19.56;52.19;99638.22;5081324;27;45391;-75
2022/07/06 03:55:10;;;;;;;;;3.25;3.25;;;;;19.54;52.20;99638.31;5081520;27;46310;-76
2022/07/06 03:57:36;;;;;;;;;3.00;3.00;;;;;19.51;52.21;99639.38;5080997;27;45471;-75
2022/07/06 04:00:03;;;;;;;;;5.25;3.00;;;;;19.50;52.66;99634.97;5081785;27;45522;-76
2022/07/06 04:02:28;;;;;;;;;2.50;2.50;;;;;19.51;52.25;99635.84;5081418;27;45553;-75
2022/07/06 04:04:54;;;;;;;;;3.00;3.00;;;;;19.51;52.29;99636.69;5081882;27;46444;-75
2022/07/06 04:07:19;;;;;;;;;3.00;2.75;;;;;19.49;52.46;99637.72;5081370;27;45364;-75
2022/07/06 04:09:45;;;;;;;;;3.00;1.75;;;;;19.50;53.03;99643.00;5081592;27;45362;-75
2022/07/06 04:12:10;;;;;;;;;2.50;2.50;;;;;19.47;52.27;99640.50;5081017;27;45396;-75
2022/07/06 04:14:35;;;;;;;;;3.00;2.25;;;;;19.44;52.32;99638.03;5079978;28;45624;-75
2022/07/06 04:17:51;;;;;;;;;4.00;4.00;;;;;19.41;53.11;99640.09;5081192;27;45371;-75
2022/07/06 04:19:46;;;;;;;;;2.75;2.75;;;;;19.38;53.16;99648.31;5080889;28;45411;-75
2022/07/06 04:22:12;;;;;;;;;3.75;3.75;;;;;19.35;53.40;99649.38;5114035;27;45545;-75
2022/07/06 04:24:37;;;;;;;;;4.00;4.00;;;;;19.29;53.23;99638.22;5080822;27;45502;-74
2022/07/06 04:27:03;;;;;;;;;3.25;3.25;;;;;19.25;54.26;99645.63;5080748;27;45391;-75
2022/07/06 04:29:28;;;;;;;;;4.00;3.25;;;;;19.23;53.74;99644.00;5081341;27;45497;-75
2022/07/06 04:31:53;;;;;;;;;2.50;2.50;;;;;19.22;53.76;99642.28;5080818;27;45502;-75
2022/07/06 04:34:19;;;;;;;;;3.25;3.25;;;;;19.18;54.12;99637.13;5080977;27;45847;-75
2022/07/06 04:36:44;;;;;;;;;0.50;0.25;;;;;19.18;53.72;99634.47;5080901;27;45383;-75
2022/07/06 04:39:09;;;;;;;;;2.75;2.75;;;;;19.17;53.81;99635.41;5080844;27;45820;-75
2022/07/06 04:41:35;;;;;;;;;3.00;3.00;;;;;19.18;54.42;99646.97;5080506;27;45493;-75
2022/07/06 04:44:00;;;;;;;;;4.00;4.00;;;;;19.16;53.62;99647.06;5078415;27;46200;-75
2022/07/06 04:46:25;;;;;;;;;2.25;2.25;;;;;19.16;54.28;99649.75;5076986;27;45395;-75
2022/07/06 04:48:51;;;;;;;;;3.00;3.00;;;;;19.12;54.01;99640.22;5077426;27;45443;-75
2022/07/06 04:51:17;;;;;;;;;4.50;3.00;;;;;19.11;54.64;99641.16;5077390;28;45526;-75
2022/07/06 04:53:42;;;;;;;;;4.75;3.75;;;;;19.12;54.09;99640.22;5077106;27;45452;-75
2022/07/06 04:56:07;;;;;;;;;5.25;2.25;;;;;19.13;54.24;99633.03;5076788;28;45442;-75
2022/07/06 04:58:33;;;;;;;;;5.75;3.25;;;;;19.14;53.88;99638.28;5077308;27;45348;-75
2022/07/06 05:00:58;;;;;;;;;4.25;3.00;;;;;19.15;54.08;99640.00;5077070;27;45352;-75
2022/07/06 05:03:24;;;;;;;;;3.25;3.00;;;;;19.16;54.41;99633.69;5076827;27;45565;-75
2022/07/06 05:05:49;;;;;;;;;4.50;2.50;;;;;19.17;54.41;99639.91;5077046;27;45347;-75
2022/07/06 05:08:14;;;;;;;;;5.00;4.25;;;;;19.19;53.80;99640.66;5077186;27;45421;-75
2022/07/06 05:10:40;;;;;;;;;3.50;3.00;;;;;19.21;53.97;99636.06;5074909;28;46067;-75
2022/07/06 05:13:05;;;;;;;;;5.00;3.00;;;;;19.23;54.34;99633.31;5076558;27;46512;-75
2022/07/06 05:15:31;;;;;;;;;4.00;3.00;;;;;19.27;54.18;99637.50;5076462;27;45375;-75
2022/07/06 05:17:56;;;;;;;;;5.50;3.50;;;;;19.25;53.96;99639.41;5077002;27;45386;-75
2022/07/06 05:20:21;;;;;;;;;4.00;4.00;;;;;19.23;54.17;99644.00;5076692;27;45318;-76
2022/07/06 05:22:47;;;;;;;;;4.75;4.75;;;;;19.25;54.79;99644.75;5076709;27;46555;-51
2022/07/06 05:25:12;;;;;;;;;4.75;3.00;;;;;19.29;54.45;99638.22;5077998;27;45492;-51
2022/07/06 05:27:37;;;;;;;;;2.25;2.25;;;;;19.34;54.85;99636.97;5075606;28;45337;-49
2022/07/06 05:30:03;;;;;;;;;5.50;5.00;;;;;19.33;53.92;99629.91;5076378;27;45493;-51
2022/07/06 05:32:29;;;;;;;;;4.00;4.00;;;;;19.36;54.29;99631.50;5076132;27;45459;-52
2022/07/06 05:34:54;;;;;;;;;4.00;3.75;;;;;19.36;54.18;99627.00;5076312;27;45577;-52
2022/07/06 05:37:19;;;;;;;;;5.00;4.00;;;;;19.36;54.84;99628.84;5076380;27;45404;-52
2022/07/06 05:39:46;;;;;;;;;7.00;3.75;;;;;19.33;54.06;99629.03;5076263;27;45544;-54
2022/07/06 05:42:12;;;;;;;;;3.25;3.25;;;;;19.34;54.59;99628.06;5074281;27;46063;-50
2022/07/06 05:44:38;;;;;;;;;5.00;4.00;;;;;19.37;54.77;99630.53;5075583;27;45546;-53
2022/07/06 05:52:31;;;;;;;;;3.25;3.00;;;;;19.35;54.36;99640.47;5075465;28;45347;-59
2022/07/06 05:54:57;;;;;;;;;4.00;4.00;;;;;19.30;54.56;99630.09;5074515;27;45376;-59
2022/07/06 05:57:22;;;;;;;;;3.25;3.00;;;;;19.24;54.85;99633.19;5074886;27;45477;-59
2022/07/06 05:59:47;;;;;;;;;3.00;3.00;;;;;19.17;54.47;99627.41;5076013;27;45428;-59
2022/07/06 06:02:13;;;;;;;;;4.00;4.00;;;;;19.18;54.84;99639.81;5075478;27;45403;-59
2022/07/06 06:04:38;;;;;;;;;2.25;2.00;;;;;19.20;54.98;99641.53;5073906;28;45407;-59
2022/07/06 06:07:04;;;;;;;;;1.75;1.75;;;;;19.20;54.71;99653.06;5075504;27;45327;-59
2022/07/06 06:09:29;;;;;;;;;4.50;4.50;;;;;19.21;55.12;99651.25;5075389;27;45432;-59
2022/07/06 06:11:54;;;;;;;;;3.25;3.25;;;;;19.22;54.35;99655.66;5074268;27;46108;-59
2022/07/06 06:14:20;;;;;;;;;5.00;4.50;;;;;19.24;54.82;99654.59;5074019;28;45344;-59
2022/07/06 06:16:45;;;;;;;;;4.25;4.25;;;;;19.29;54.16;99657.78;5075673;27;45657;-59
2022/07/06 06:19:10;;;;;;;;;7.00;6.00;;;;;19.35;54.60;99668.09;5075241;27;45506;-59
2022/07/06 06:21:36;;;;;;;;;4.25;3.00;;;;;19.41;53.78;99677.53;5075265;27;45396;-59
2022/07/06 06:24:01;;;;;;;;;4.50;4.00;;;;;19.44;53.63;99674.63;5074525;27;45368;-59
2022/07/06 06:26:26;;;;;;;;;0.00;0.00;;;;;19.46;53.33;99686.94;5074399;27;45364;-59
2022/07/06 06:28:52;;;;;;;;;4.25;3.25;;;;;19.50;54.11;99687.63;5074828;27;45392;-59
2022/07/06 06:31:17;;;;;;;;;2.50;2.50;;;;;19.55;53.41;99700.69;5074930;27;45994;-59
2022/07/06 06:33:43;;;;;;;;;4.25;4.25;;;;;19.60;53.24;99699.41;5074287;27;45432;-59
2022/07/06 06:36:08;;;;;;;;;3.50;3.50;;;;;19.61;53.24;99700.25;5074914;27;45348;-59
2022/07/06 06:38:34;;;;;;;;;6.25;5.00;;;;;19.63;53.17;99698.31;5074694;27;45411;-59
2022/07/06 06:41:01;;;;;;;;;5.25;5.25;;;;;19.67;52.73;99699.84;5074072;27;46421;-60
2022/07/06 06:43:26;;;;;;;;;3.80;3.40;;;;;19.71;52.97;99704.03;5074037;27;45484;-60
2022/07/06 06:45:52;;;;;;;;;4.25;4.25;;;;;19.78;53.07;99700.81;5075001;27;45243;-59
2022/07/06 06:48:18;;;;;;;;;4.00;4.00;;;;;19.87;52.87;99710.03;5074154;27;45345;-59
2022/07/06 06:50:45;;;;;;;;;5.75;4.75;;;;;19.97;53.00;99710.25;5073975;27;46152;-59
2022/07/06 06:53:10;;;;;;;;;5.60;5.00;;;;;20.03;52.18;99709.84;5074254;27;45365;-59
2022/07/06 06:55:36;;;;;;;;;3.25;3.25;;;;;20.07;52.51;99709.53;5074613;27;45565;-59
2022/07/06 06:58:01;;;;;;;;;4.25;4.25;;;;;20.09;51.95;99704.06;5074245;27;45348;-59
2022/07/06 07:00:27;;;;;;;;;3.75;3.75;;;;;20.12;52.09;99691.31;5074383;27;45497;-60
2022/07/06 07:02:52;;;;;;;;;5.00;5.00;;;;;20.19;51.90;99695.28;5073722;27;45415;-60
2022/07/06 07:05:17;;;;;;;;;5.25;4.00;;;;;20.28;52.58;99698.25;5074554;27;45379;-59
2022/07/06 07:07:43;;;;;;;;;4.00;4.00;;;;;20.33;52.64;99698.78;5073933;27;45408;-59
2022/07/06 07:10:08;;;;;;;;;5.00;4.00;;;;;20.36;52.09;99699.47;5074335;27;46151;-59
2022/07/06 07:12:34;;;;;;;;;5.50;3.75;;;;;20.37;52.13;99693.16;5073972;27;45491;-60
2022/07/06 07:15:00;;;;;;;;;4.00;4.00;;;;;20.41;51.64;99691.13;5074422;27;45505;-59
2022/07/06 07:17:26;;;;;;;;;4.25;4.25;;;;;20.45;51.81;99695.25;5074044;27;45526;-59
2022/07/06 07:19:51;;;;;;;;;5.00;5.00;;;;;20.49;51.93;99686.03;5074327;27;46096;-59
2022/07/06 07:22:17;;;;;;;;;5.00;5.00;;;;;20.54;51.94;99697.28;5074018;27;45409;-59
2022/07/06 07:24:42;;;;;;;;;5.00;4.00;;;;;20.62;51.72;99710.97;5074288;27;45479;-59
2022/07/06 07:27:08;;;;;;;;;4.00;4.00;;;;;20.70;51.27;99697.91;5089446;27;45539;-59
2022/07/06 07:29:33;;;;;;;;;8.00;6.50;;;;;20.82;51.97;99704.19;5073768;27;46455;-60
2022/07/06 07:31:59;;;;;;;;;3.00;3.00;;;;;20.93;51.01;99700.75;5074026;27;45286;-60
2022/07/06 07:34:24;;;;;;;;;5.75;4.75;;;;;20.98;50.59;99688.69;5074096;27;45388;-60
2022/07/06 07:36:49;;;;;;;;;5.00;4.00;;;;;21.07;50.38;99698.75;5073686;27;45537;-60
2022/07/06 07:39:15;;;;;;;;;5.75;4.75;;;;;21.14;50.82;99694.63;5074344;28;46196;-60
2022/07/06 07:41:40;;;;;;;;;4.00;4.00;;;;;21.22;49.84;99694.97;5073873;27;45379;-60
2022/07/06 07:44:06;;;;;;;;;4.25;4.25;;;;;21.29;50.11;99691.78;5073749;27;45353;-60
2022/07/06 07:46:31;;;;;;;;;5.75;5.00;;;;;21.35;49.66;99696.72;5073468;27;45491;-60
2022/07/06 07:48:56;;;;;;;;;7.00;4.00;;;;;21.42;49.52;99690.78;5074098;27;46549;-60
2022/07/06 07:51:22;;;;;;;;;5.00;5.00;;;;;21.50;49.21;99688.34;5073806;27;45376;-60
2022/07/06 07:53:47;;;;;;;;;4.50;3.50;;;;;21.62;48.97;99685.72;5074014;27;45472;-60
2022/07/06 07:56:13;;;;;;;;;4.50;3.75;;;;;21.71;49.03;99676.94;5073002;28;45492;-60
2022/07/06 07:58:38;;;;;;;;;4.25;3.75;;;;;21.81;48.30;99678.78;5073914;27;46548;-60
2022/07/06 08:01:04;;;;;;;;;3.25;3.00;;;;;21.93;47.90;99679.69;5073928;27;45166;-60
2022/07/06 08:03:30;;;;;;;;;4.00;3.75;;;;;22.04;48.21;99684.25;5074334;28;45567;-60
2022/07/06 08:05:55;;;;;;;;;4.50;3.50;;;;;22.14;47.92;99667.28;5073819;27;45521;-58
2022/07/06 08:08:20;;;;;;;;;4.00;3.50;;;;;22.26;47.68;99671.72;5074256;27;45376;-60
2022/07/06 08:10:47;;;;;;;;;3.75;3.75;;;;;22.35;47.19;99670.09;5073358;27;45413;-60
2022/07/06 08:13:14;;;;;;;;;4.00;4.00;;;;;22.43;46.54;99674.88;5073346;27;45392;-60
2022/07/06 08:15:40;;;;;;;;;3.00;3.00;;;;;22.53;45.85;99678.53;5072242;28;46030;-60
2022/07/06 08:18:05;;;;;;;;;4.00;4.00;;;;;22.60;45.94;99669.84;5073496;27;46173;-60
2022/07/06 08:20:30;;;;;;;;;1.25;1.25;;;;;22.68;46.25;99666.53;5076385;27;45519;-60
2022/07/06 08:22:56;;;;;;;;;5.25;5.25;;;;;22.73;46.05;99658.09;5077348;27;45898;-60
2022/07/06 08:25:21;;;;;;;;;4.75;4.00;;;;;22.75;45.66;99653.44;5076931;27;45512;-60
2022/07/06 08:27:47;;;;;;;;;5.00;5.00;;;;;22.80;46.16;99662.00;5077170;27;46079;-60
2022/07/06 08:30:13;;;;;;;;;3.00;3.00;;;;;22.87;46.22;99657.84;5077180;27;45733;-60
2022/07/06 08:32:42;;;;;;;;;4.00;4.00;;;;;22.95;46.23;99653.56;5076028;28;45408;-59
2022/07/06 08:35:09;;;;;;;;;4.50;3.75;;;;;23.01;45.68;99645.94;5077104;27;45490;-59
2022/07/06 08:37:34;;;;;;;;;4.00;4.00;;;;;23.03;45.60;99634.09;5092209;27;45564;-59
2022/07/06 08:40:00;;;;;;;;;2.75;2.75;;;;;23.07;46.13;99638.22;5076656;27;45344;-58
2022/07/06 08:42:29;;;;;;;;;5.25;4.00;;;;;23.14;46.00;99634.03;5076650;27;45363;-61
2022/07/06 08:44:58;;;;;;;;;6.50;5.50;;;;;23.24;45.29;99623.38;5076320;27;45438;-58
2022/07/06 08:47:27;;;;;;;;;4.25;4.25;;;;;23.31;45.95;99640.69;5076132;27;45379;-59
2022/07/06 08:49:53;;;;;;;;;5.00;5.00;;;;;23.36;45.32;99616.94;5075989;27;45356;-59
2022/07/06 08:52:19;;;;;;;;;5.25;5.25;;;;;23.39;45.33;99616.69;5076636;27;45444;-58
2022/07/06 08:54:45;;;;;;;;;4.00;4.00;;;;;23.46;45.22;99622.41;5076430;27;45423;-60
2022/07/06 08:57:11;;;;;;;;;5.00;5.00;;;;;23.50;45.59;99624.69;5075612;28;47559;-60
2022/07/06 08:59:38;;;;;;;;;4.00;4.00;;;;;23.55;45.63;99629.72;5076102;27;45377;-60
2022/07/06 09:02:04;;;;;;;;;5.00;4.00;;;;;23.58;45.54;99619.53;5076714;27;45391;-60
2022/07/06 09:04:32;;;;;;;;;5.00;5.00;;;;;23.62;45.08;99618.31;5076248;27;45356;-59
2022/07/06 09:06:57;;;;;;;;;5.00;5.00;;;;;23.69;44.75;99610.53;5076243;27;45530;-59
2022/07/06 09:09:24;;;;;;;;;7.50;5.00;;;;;23.76;44.92;99608.19;5076495;27;45358;-59
2022/07/06 09:11:50;;;;;;;;;5.00;5.00;;;;;23.82;44.59;99675.81;5074853;28;45523;-59
2022/07/06 09:14:15;;;;;;;;;4.00;4.00;;;;;23.87;44.83;99614.31;5076305;27;45447;-59
2022/07/06 09:16:41;;;;;;;;;5.50;5.00;;;;;23.92;44.42;99627.41;5076456;27;47149;-59
2022/07/06 09:19:07;;;;;;;;;5.00;5.00;;;;;23.97;43.95;99617.91;5076102;27;45541;-59
2022/07/06 09:21:36;;;;;;;;;5.50;4.75;;;;;24.04;43.58;99622.78;5076157;27;45277;-59
2022/07/06 09:24:07;;;;;;;;;4.50;4.00;;;;;24.10;43.29;99631.19;5076175;27;45360;-59
2022/07/06 09:26:34;;;;;;;;;7.20;4.00;;;;;24.15;43.86;99619.97;5075476;27;46579;-59
2022/07/06 09:28:59;;;;;;;;;3.20;2.80;;;;;24.24;43.26;99632.69;5076043;27;45422;-59
2022/07/06 09:31:25;;;;;;;;;5.00;5.00;;;;;24.31;43.11;99632.00;5075699;27;45378;-58
2022/07/06 09:33:55;;;;;;;;;4.25;3.75;;;;;24.35;42.91;99630.72;5075701;27;45584;-59
2022/07/06 09:36:39;;;;;;;;;3.25;3.25;;;;;24.45;42.54;99624.53;5076142;27;45443;-59
2022/07/06 09:39:18;;;;;;;;;5.60;5.00;;;;;24.54;41.74;99618.31;5075856;28;45388;-59
2022/07/06 09:41:44;;;;;;;;;4.60;4.20;;;;;24.60;42.02;99618.63;5075623;27;45385;-59
2022/07/06 09:44:10;;;;;;;;;2.50;1.75;;;;;24.74;41.58;99605.72;5076001;28;45334;-59
2022/07/06 09:46:42;;;;;;;;;2.00;1.80;;;;;24.81;41.28;99636.53;5075429;27;46514;-59
2022/07/06 09:49:08;;;;;;;;;4.40;4.00;;;;;24.85;41.58;99605.59;5075759;27;45399;-60
2022/07/06 09:51:38;;;;;;;;;5.00;4.00;;;;;24.89;41.27;99613.28;5076185;27;45489;-60
2022/07/06 09:54:08;;;;;;;;;4.00;4.00;;;;;24.93;40.67;99613.84;5075694;27;45457;-60
2022/07/06 09:56:41;;;;;;;;;1.00;1.00;;;;;24.98;41.19;99625.09;5075079;27;45462;-60
2022/07/06 09:59:15;;;;;;;;;2.80;2.60;;;;;24.99;40.37;99619.53;5075761;27;45374;-60
2022/07/06 10:01:41;;;;;;;;;4.00;4.00;;;;;25.00;40.17;99613.16;5075666;27;45450;-60
2022/07/06 10:04:09;;;;;;;;;4.00;4.00;;;;;25.06;40.67;99600.97;5075325;27;45611;-61
2022/07/06 10:06:36;;;;;;;;;6.00;4.00;;;;;25.10;40.48;99599.69;5075560;27;45446;-60
2022/07/06 10:09:05;;;;;;;;;4.00;3.80;;;;;25.15;40.93;99592.00;5075595;27;45458;-60
2022/07/06 10:11:35;;;;;;;;;5.50;5.50;;;;;25.23;40.45;99597.56;5074791;27;45466;-60
2022/07/06 10:14:03;;;;;;;;;4.50;4.50;;;;;25.28;40.32;99599.81;5074676;27;45580;-60
2022/07/06 10:16:29;;;;;;;;;3.20;3.20;;;;;25.36;40.09;99594.56;5075152;27;46625;-60
2022/07/06 10:18:55;;;;;;;;;4.00;4.00;;;;;25.44;39.68;99600.09;5074795;28;45665;-60
2022/07/06 10:21:24;;;;;;;;;4.25;3.00;;;;;25.52;39.44;99602.91;5073648;28;45462;-60
2022/07/06 10:23:50;;;;;;;;;3.00;3.00;;;;;25.56;39.27;99582.72;5073997;27;45305;-60
2022/07/06 10:26:18;;;;;;;;;3.00;3.00;;;;;25.63;39.00;99607.34;5074268;27;46300;-60
2022/07/06 10:28:46;;;;;;;;;3.40;2.80;;;;;25.74;38.25;99601.75;5074971;28;45445;-60
2022/07/06 10:31:14;;;;;;;;;4.50;4.00;;;;;25.80;37.90;99648.97;5073890;28;45367;-60
2022/07/06 10:33:41;;;;;;;;;2.75;2.75;;;;;25.82;37.91;99580.25;5074969;28;45489;-60
2022/07/06 10:36:07;;;;;;;;;1.60;1.60;;;;;25.87;38.36;99615.81;5075114;27;45318;-60
2022/07/06 10:38:34;;;;;;;;;4.40;4.40;;;;;25.90;38.54;99588.50;5074514;27;45470;-60
2022/07/06 10:41:09;;;;;;;;;5.00;3.50;;;;;25.97;38.75;99586.06;5074271;27;45422;-60
2022/07/06 10:43:42;;;;;;;;;4.75;4.00;;;;;26.00;38.33;99596.56;5074461;27;45542;-60
2022/07/06 10:46:10;;;;;;;;;3.60;3.60;;;;;25.97;38.39;99600.44;5074862;28;45649;-60
2022/07/06 10:48:40;;;;;;;;;5.00;4.60;;;;;25.96;39.02;99585.22;5074851;27;45438;-60
2022/07/06 10:51:06;;;;;;;;;3.00;3.00;;;;;26.05;38.52;99600.53;5074755;27;45367;-60
2022/07/06 10:53:34;;;;;;;;;4.75;4.50;;;;;26.09;38.35;99603.78;5074581;28;45412;-60
2022/07/06 10:56:03;;;;;;;;;5.40;3.80;;;;;26.07;38.79;99617.44;5074259;27;45490;-60
2022/07/06 10:58:48;;;;;;;;;5.00;5.00;;;;;26.06;38.44;99623.00;5074588;27;45587;-60
2022/07/06 11:01:15;;;;;;;;;3.00;3.00;;;;;26.06;38.99;99598.69;5075193;27;45345;-60
2022/07/06 11:03:45;;;;;;;;;5.25;4.75;;;;;26.08;38.70;99585.88;5074885;27;45438;-60
2022/07/06 11:06:18;;;;;;;;;4.00;4.00;;;;;26.12;38.81;99581.88;5074152;28;45509;-60
2022/07/06 11:08:51;;;;;;;;;4.00;4.00;;;;;26.13;38.66;99585.44;5074191;27;45416;-60
2022/07/06 11:11:19;;;;;;;;;5.00;5.00;;;;;26.16;38.32;99577.00;5074184;28;45441;-60
2022/07/06 11:14:14;;;;;;;;;3.00;3.00;;;;;26.24;38.41;99590.63;5074198;28;45475;-60
2022/07/06 11:16:48;;;;;;;;;3.75;3.75;;;;;26.28;38.62;99541.53;5074582;28;46862;-60
2022/07/06 11:19:19;;;;;;;;;3.80;3.80;;;;;26.36;39.01;99560.56;5071538;28;45539;-59
2022/07/06 11:21:57;;;;;;;;;4.25;4.25;;;;;26.39;38.43;99576.50;5074867;28;45479;-60
2022/07/06 11:24:30;;;;;;;;;3.00;3.00;;;;;26.37;38.80;99581.19;5074271;27;45415;-60
2022/07/06 11:26:57;;;;;;;;;5.50;5.50;;;;;26.29;38.81;99597.34;5073510;28;46776;-60
2022/07/06 11:29:24;;;;;;;;;5.60;4.00;;;;;26.27;39.06;99553.34;5074557;28;45409;-60
2022/07/06 11:31:53;;;;;;;;;4.00;3.80;;;;;26.30;39.03;99558.50;5074467;27;45654;-60
2022/07/06 11:34:29;;;;;;;;;4.75;4.75;;;;;26.25;39.45;99609.41;5074497;27;45419;-60
2022/07/06 11:37:02;;;;;;;;;4.50;4.50;;;;;26.24;39.58;99550.09;5072493;28;45396;-60